Time;durP1;ratioP1;P1;durP2;ratioP2;P2;SDS_P1;SDS_P2;PMS_P1;PMS_P2;Temp;Humidity;BMP_temperature;BMP_pressure;BME280_temperature;BME280_humidity;BME280_pressure;Samples;Min_cycle;Max_cycle;Signal;HPM_P1;HPM_P2
2021/01/25 00:01:33;;;;;;;7.57;6.30;;;4.80;99.90;;;;;;5014275;28;20673;-67
2021/01/25 00:04:18;;;;;;;8.70;7.47;;;4.90;99.90;;;;;;5026099;28;20574;-67
2021/01/25 00:07:02;;;;;;;8.30;7.10;;;4.80;99.90;;;;;;5022532;28;20623;-67
2021/01/25 00:09:51;;;;;;;8.27;7.23;;;4.80;99.90;;;;;;5018776;28;20736;-67
2021/01/25 00:12:35;;;;;;;9.23;7.77;;;4.80;99.90;;;;;;5016070;28;21064;-67
2021/01/25 00:15:20;;;;;;;8.13;7.33;;;4.80;99.90;;;;;;5026758;28;20582;-67
2021/01/25 00:18:05;;;;;;;7.40;6.60;;;4.80;99.90;;;;;;5016661;28;20633;-67
2021/01/25 00:20:49;;;;;;;7.90;7.10;;;4.80;99.90;;;;;;5020916;28;20673;-67
2021/01/25 00:23:34;;;;;;;7.83;7.03;;;4.80;99.90;;;;;;5024443;28;20595;-67
2021/01/25 00:26:19;;;;;;;8.23;6.73;;;4.70;99.90;;;;;;5020954;28;20618;-66
2021/01/25 00:29:03;;;;;;;7.10;6.40;;;4.80;99.90;;;;;;5023886;28;20686;-67
2021/01/25 00:31:48;;;;;;;7.87;6.70;;;4.90;99.90;;;;;;5017154;28;20635;-67
2021/01/25 00:34:32;;;;;;;8.00;6.63;;;4.70;99.90;;;;;;5018763;28;20627;-67
2021/01/25 00:37:25;;;;;;;7.60;6.87;;;4.80;99.90;;;;;;5025188;28;20734;-67
2021/01/25 00:40:10;;;;;;;7.20;6.50;;;4.70;99.90;;;;;;5023149;28;20657;-67
2021/01/25 00:42:55;;;;;;;6.90;6.20;;;4.70;99.90;;;;;;5018137;28;20651;-67
2021/01/25 00:45:39;;;;;;;6.60;5.70;;;4.70;99.90;;;;;;5017312;28;20733;-67
2021/01/25 00:48:24;;;;;;;7.00;6.30;;;4.60;99.90;;;;;;5013927;28;20634;-67
2021/01/25 00:51:08;;;;;;;6.90;6.20;;;4.70;99.90;;;;;;5018194;28;20627;-67
2021/01/25 00:53:53;;;;;;;6.83;6.23;;;4.70;99.90;;;;;;5018028;28;20763;-67
2021/01/25 00:56:37;;;;;;;7.70;6.13;;;4.60;99.90;;;;;;5018796;28;21277;-66
2021/01/25 00:59:21;;;;;;;8.50;6.60;;;4.60;99.90;;;;;;5020009;28;20740;-67
2021/01/25 01:02:13;;;;;;;7.30;6.10;;;4.50;99.90;;;;;;5020538;28;21280;-66
2021/01/25 01:04:58;;;;;;;6.30;5.70;;;4.60;99.90;;;;;;5020058;28;21208;-66
2021/01/25 01:07:42;;;;;;;7.73;6.50;;;4.60;99.90;;;;;;5023511;28;20662;-66
2021/01/25 01:10:27;;;;;;;7.63;6.63;;;4.70;99.90;;;;;;5030706;28;20861;-69
2021/01/25 01:13:11;;;;;;;6.63;6.03;;;4.60;99.90;;;;;;5021068;28;20650;-67
2021/01/25 01:15:56;;;;;;;8.93;6.93;;;4.70;99.90;;;;;;5029123;28;20606;-67
2021/01/25 01:18:40;;;;;;;7.83;6.93;;;4.60;99.90;;;;;;5030763;28;20639;-67
2021/01/25 01:21:25;;;;;;;7.00;6.30;;;4.60;99.90;;;;;;5027875;28;20646;-67
2021/01/25 01:24:10;;;;;;;7.20;6.50;;;4.60;99.90;;;;;;5026596;28;20614;-67
2021/01/25 01:26:54;;;;;;;7.03;6.33;;;4.60;99.90;;;;;;5034344;28;20638;-67
2021/01/25 01:29:39;;;;;;;6.97;6.37;;;4.60;99.90;;;;;;5031171;28;20655;-67
2021/01/25 01:32:23;;;;;;;7.87;7.07;;;4.60;99.90;;;;;;5026896;28;20650;-67
2021/01/25 01:35:08;;;;;;;8.23;7.40;;;4.60;99.90;;;;;;5019376;28;21060;-67
2021/01/25 01:37:53;;;;;;;7.17;6.27;;;4.50;99.90;;;;;;4999956;28;20728;-68
2021/01/25 01:40:37;;;;;;;7.10;6.47;;;4.60;99.90;;;;;;4998101;28;20705;-67
2021/01/25 01:43:22;;;;;;;6.70;6.00;;;4.50;99.90;;;;;;4989854;28;20675;-67
2021/01/25 01:46:07;;;;;;;6.30;5.70;;;4.50;99.90;;;;;;4993403;28;20619;-67
2021/01/25 01:48:51;;;;;;;6.87;6.13;;;4.50;99.90;;;;;;4999523;28;20639;-67
2021/01/25 01:51:40;;;;;;;7.83;5.60;;;4.50;99.90;;;;;;4995252;28;20799;-67
2021/01/25 01:54:25;;;;;;;6.37;5.87;;;4.50;99.90;;;;;;4994481;28;20608;-68
2021/01/25 01:57:10;;;;;;;6.40;5.80;;;4.50;99.90;;;;;;4989936;28;20665;-68
2021/01/25 01:59:55;;;;;;;6.30;5.70;;;4.60;99.90;;;;;;4989218;28;22194;-68
2021/01/25 02:02:40;;;;;;;5.93;5.43;;;4.50;99.90;;;;;;4995853;28;20638;-67
2021/01/25 02:05:25;;;;;;;6.40;5.80;;;4.50;99.90;;;;;;4995412;28;20599;-68
2021/01/25 02:08:13;;;;;;;6.83;6.13;;;4.50;99.90;;;;;;5001324;28;20638;-69
2021/01/25 02:11:00;;;;;;;7.77;7.07;;;4.50;99.90;;;;;;4988587;28;20741;-67
2021/01/25 02:13:48;;;;;;;6.73;6.13;;;4.50;99.90;;;;;;4987434;28;20621;-67
2021/01/25 02:16:36;;;;;;;7.00;6.37;;;4.50;99.90;;;;;;4995126;28;21225;-67
2021/01/25 02:19:33;;;;;;;7.00;6.10;;;4.50;99.90;;;;;;5009975;22;20675;-66
2021/01/25 02:22:33;;;;;;;8.07;7.27;;;4.40;99.90;;;;;;4990446;28;20642;-65
2021/01/25 02:25:38;;;;;;;7.10;6.40;;;4.40;99.90;;;;;;4982472;28;20680;-65
2021/01/25 02:28:25;;;;;;;7.67;6.93;;;4.50;99.90;;;;;;4994433;28;21244;-67
2021/01/25 02:31:11;;;;;;;7.30;6.50;;;4.50;99.90;;;;;;4979397;28;20677;-65
2021/01/25 02:33:57;;;;;;;7.53;6.73;;;4.50;99.90;;;;;;4996152;28;20677;-65
2021/01/25 02:36:45;;;;;;;7.60;6.80;;;4.40;99.90;;;;;;4978163;28;20691;-65
2021/01/25 02:39:31;;;;;;;7.03;6.40;;;4.50;99.90;;;;;;5015768;28;20729;-68
2021/01/25 02:42:16;;;;;;;8.40;7.53;;;4.50;99.90;;;;;;5005992;28;20730;-65
2021/01/25 02:45:07;;;;;;;8.63;7.73;;;4.50;99.90;;;;;;4990358;28;20694;-66
2021/01/25 02:47:53;;;;;;;8.27;7.47;;;4.50;99.90;;;;;;5024494;28;20717;-67
2021/01/25 02:50:38;;;;;;;8.80;7.90;;;4.50;99.90;;;;;;5016456;28;21193;-66
2021/01/25 02:53:22;;;;;;;7.53;6.73;;;4.40;99.90;;;;;;5022070;28;20666;-66
2021/01/25 02:56:08;;;;;;;8.33;7.53;;;4.40;99.90;;;;;;5026258;28;20610;-67
2021/01/25 02:58:53;;;;;;;7.40;6.70;;;4.50;99.90;;;;;;5010999;28;20912;-66
2021/01/25 03:01:40;;;;;;;7.60;6.90;;;4.50;99.90;;;;;;5008247;28;20724;-67
2021/01/25 03:04:25;;;;;;;8.23;6.50;;;4.50;99.90;;;;;;5004991;28;20654;-66
2021/01/25 03:07:11;;;;;;;7.67;6.87;;;4.50;99.90;;;;;;5012859;28;20595;-66
2021/01/25 03:10:00;;;;;;;10.23;6.77;;;4.50;99.90;;;;;;5005599;28;20744;-67
2021/01/25 03:12:48;;;;;;;7.20;6.53;;;4.50;99.90;;;;;;5014208;28;20634;-66
2021/01/25 03:15:36;;;;;;;7.53;6.83;;;4.50;99.90;;;;;;5011636;28;20598;-67
2021/01/25 03:18:21;;;;;;;7.50;6.80;;;4.50;99.90;;;;;;5029544;28;20681;-67
2021/01/25 03:21:05;;;;;;;7.53;6.53;;;4.50;99.90;;;;;;5010202;28;20653;-67
2021/01/25 03:23:53;;;;;;;7.03;6.43;;;4.50;99.90;;;;;;5005854;28;21114;-67
2021/01/25 03:26:41;;;;;;;8.50;7.60;;;4.40;99.90;;;;;;5031315;28;21334;-66
2021/01/25 03:29:28;;;;;;;8.50;7.60;;;4.40;99.90;;;;;;5009795;28;21263;-66
2021/01/25 03:32:15;;;;;;;10.03;7.80;;;4.40;99.90;;;;;;5011336;28;20634;-67
2021/01/25 03:35:03;;;;;;;8.50;7.53;;;4.20;99.90;;;;;;5020546;28;20579;-68
2021/01/25 03:37:47;;;;;;;7.77;7.00;;;4.20;99.90;;;;;;5029588;28;20637;-67
2021/01/25 03:40:33;;;;;;;9.67;8.00;;;4.20;99.90;;;;;;5023067;28;20677;-66
2021/01/25 03:43:18;;;;;;;8.07;7.27;;;4.30;99.90;;;;;;5029322;28;20631;-68
2021/01/25 03:46:03;;;;;;;9.13;8.17;;;4.30;99.90;;;;;;5014967;28;20984;-66
2021/01/25 03:48:47;;;;;;;10.00;7.67;;;4.20;99.90;;;;;;5015007;28;20642;-66
2021/01/25 03:51:34;;;;;;;8.50;7.60;;;4.10;99.90;;;;;;5007002;28;20646;-67
2021/01/25 03:54:19;;;;;;;10.13;7.87;;;4.10;99.90;;;;;;5020031;28;20953;-67
2021/01/25 03:57:04;;;;;;;10.33;8.03;;;4.20;99.90;;;;;;5010608;28;20754;-67
2021/01/25 03:59:48;;;;;;;10.97;8.30;;;4.30;99.90;;;;;;5010630;28;20786;-67
2021/01/25 04:02:33;;;;;;;10.90;9.17;;;4.30;99.90;;;;;;5011312;28;21251;-66
2021/01/25 04:05:17;;;;;;;9.40;8.50;;;4.30;99.90;;;;;;5013646;28;20638;-67
2021/01/25 04:08:02;;;;;;;9.07;8.13;;;4.30;99.90;;;;;;5013326;28;20626;-67
2021/01/25 04:10:49;;;;;;;13.27;9.47;;;4.30;99.90;;;;;;5020445;28;20645;-68
2021/01/25 04:13:33;;;;;;;9.33;8.20;;;4.20;99.90;;;;;;5027989;28;20721;-67
2021/01/25 04:16:18;;;;;;;10.63;9.40;;;4.20;99.90;;;;;;5015152;28;21193;-66
2021/01/25 04:19:06;;;;;;;12.40;9.50;;;4.10;99.90;;;;;;5011754;28;20652;-67
2021/01/25 04:21:50;;;;;;;11.27;9.33;;;4.10;99.90;;;;;;5018620;28;20836;-66
2021/01/25 04:24:35;;;;;;;11.13;9.37;;;4.20;99.90;;;;;;5014238;28;20602;-67
2021/01/25 04:27:21;;;;;;;13.60;10.37;;;4.20;99.90;;;;;;5019556;28;20634;-66
2021/01/25 04:30:09;;;;;;;11.30;9.50;;;4.20;99.90;;;;;;5028165;28;20716;-67
2021/01/25 04:32:54;;;;;;;10.67;9.27;;;4.20;99.90;;;;;;5004330;28;20665;-67
2021/01/25 04:35:40;;;;;;;10.73;9.63;;;4.20;99.90;;;;;;5019675;28;20646;-66
2021/01/25 04:38:27;;;;;;;12.53;10.00;;;4.30;99.90;;;;;;5020213;28;20651;-64
2021/01/25 04:41:12;;;;;;;16.33;10.90;;;4.20;99.90;;;;;;5028465;28;21391;-65
2021/01/25 04:43:58;;;;;;;15.80;11.70;;;4.20;99.90;;;;;;5012872;28;20654;-66
2021/01/25 04:46:44;;;;;;;14.20;11.77;;;4.00;99.90;;;;;;5007159;28;20677;-68
2021/01/25 04:49:31;;;;;;;14.53;11.50;;;4.00;99.90;;;;;;5007567;28;21146;-66
2021/01/25 04:52:17;;;;;;;12.97;10.93;;;4.00;99.90;;;;;;5007510;28;20794;-65
2021/01/25 04:55:05;;;;;;;13.10;10.60;;;4.10;99.90;;;;;;5015549;28;20619;-68
2021/01/25 04:57:51;;;;;;;13.63;10.57;;;4.10;99.90;;;;;;5028718;28;20583;-67
2021/01/25 05:00:35;;;;;;;13.80;11.63;;;4.10;99.90;;;;;;5007952;28;21232;-67
2021/01/25 05:03:20;;;;;;;12.43;10.77;;;4.10;99.90;;;;;;5027601;28;20686;-66
2021/01/25 05:06:05;;;;;;;14.03;11.27;;;4.00;99.90;;;;;;5028054;28;20685;-65
2021/01/25 05:08:50;;;;;;;13.87;11.30;;;4.00;99.90;;;;;;5013516;28;20662;-67
2021/01/25 05:11:34;;;;;;;11.23;9.77;;;3.90;99.90;;;;;;5018869;28;20651;-67
2021/01/25 05:14:19;;;;;;;13.63;11.70;;;3.90;99.90;;;;;;5000986;28;20583;-66
2021/01/25 05:17:10;;;;;;;13.27;11.00;;;4.00;99.90;;;;;;5013148;28;20706;-67
2021/01/25 05:19:57;;;;;;;13.00;10.80;;;4.00;99.90;;;;;;5025312;28;20665;-67
2021/01/25 05:22:42;;;;;;;12.87;11.30;;;4.10;99.90;;;;;;5024561;28;21209;-67
2021/01/25 05:25:30;;;;;;;13.27;10.80;;;4.10;99.90;;;;;;4998083;28;20599;-68
2021/01/25 05:28:17;;;;;;;13.53;10.97;;;4.10;99.90;;;;;;5025167;28;20698;-67
2021/01/25 05:31:01;;;;;;;12.60;11.07;;;4.10;99.90;;;;;;5022487;28;20986;-65
2021/01/25 05:33:46;;;;;;;12.93;11.03;;;4.10;99.90;;;;;;5011206;28;20681;-68
2021/01/25 05:36:30;;;;;;;12.27;10.97;;;4.10;99.90;;;;;;5020045;28;20617;-67
2021/01/25 05:39:16;;;;;;;13.47;10.53;;;4.20;99.90;;;;;;5012261;28;20740;-67
2021/01/25 05:42:00;;;;;;;13.23;10.90;;;4.20;99.90;;;;;;5009392;28;20692;-67
2021/01/25 05:44:45;;;;;;;13.23;11.03;;;4.10;99.90;;;;;;5007953;28;20766;-66
2021/01/25 05:47:30;;;;;;;12.30;9.97;;;4.10;99.90;;;;;;5012806;28;20663;-67
2021/01/25 05:50:44;;;;;;;13.60;11.77;;;4.10;99.90;;;;;;5010826;28;20661;-67
2021/01/25 05:53:28;;;;;;;17.23;11.50;;;4.20;99.90;;;;;;5001968;28;20630;-68
2021/01/25 05:56:15;;;;;;;12.47;10.60;;;4.20;99.90;;;;;;5014984;28;20659;-67
2021/01/25 05:58:59;;;;;;;12.07;10.60;;;4.10;99.90;;;;;;5025312;28;20626;-66
2021/01/25 06:01:47;;;;;;;14.23;11.43;;;4.20;99.90;;;;;;5007522;28;20689;-65
2021/01/25 06:04:32;;;;;;;12.30;11.00;;;4.20;99.90;;;;;;5023586;28;20697;-67
2021/01/25 06:07:17;;;;;;;13.10;11.03;;;4.20;99.90;;;;;;5006615;28;20634;-67
2021/01/25 06:10:03;;;;;;;12.57;10.60;;;4.20;99.90;;;;;;5008920;28;20666;-67
2021/01/25 06:13:06;;;;;;;12.90;11.13;;;4.20;99.90;;;;;;5010854;28;20685;-66
2021/01/25 06:15:54;;;;;;;11.87;10.20;;;4.20;99.90;;;;;;5005329;28;20701;-66
2021/01/25 06:18:45;;;;;;;12.07;10.47;;;4.30;99.90;;;;;;5023097;28;20615;-66
2021/01/25 06:21:34;;;;;;;13.53;11.30;;;4.30;99.90;;;;;;5006234;28;20762;-67
2021/01/25 06:24:21;;;;;;;12.53;11.23;;;4.30;99.90;;;;;;5005241;28;20595;-66
2021/01/25 06:27:06;;;;;;;13.37;11.03;;;4.30;99.90;;;;;;5025011;28;20606;-67
2021/01/25 06:29:52;;;;;;;14.70;11.60;;;4.30;99.90;;;;;;5010634;28;20666;-66
2021/01/25 06:32:41;;;;;;;15.10;12.40;;;4.30;99.90;;;;;;5002431;28;20785;-65
2021/01/25 06:35:31;;;;;;;16.93;12.47;;;4.30;99.90;;;;;;5010651;28;20618;-67
2021/01/25 06:38:18;;;;;;;12.73;10.87;;;4.20;99.90;;;;;;5024229;28;20789;-66
2021/01/25 06:41:11;;;;;;;13.17;11.17;;;4.30;99.90;;;;;;5003194;28;20646;-64
2021/01/25 06:43:59;;;;;;;16.17;11.40;;;4.30;99.90;;;;;;5004415;28;20638;-68
2021/01/25 06:46:44;;;;;;;18.10;11.70;;;4.20;99.90;;;;;;4985671;28;20599;-68
2021/01/25 06:49:33;;;;;;;13.67;10.87;;;4.20;99.90;;;;;;4981260;28;20696;-69
2021/01/25 06:52:18;;;;;;;12.10;9.60;;;4.20;99.90;;;;;;4982082;28;21312;-69
2021/01/25 06:55:08;;;;;;;14.37;10.93;;;4.20;99.90;;;;;;4997915;28;20635;-70
2021/01/25 06:58:02;;;;;;;13.33;10.73;;;4.20;99.90;;;;;;4984037;28;20584;-69
2021/01/25 07:00:52;;;;;;;14.53;10.17;;;4.00;99.90;;;;;;4965487;28;20688;-69
2021/01/25 07:03:45;;;;;;;12.63;10.67;;;4.00;99.90;;;;;;4979999;28;20696;-70
2021/01/25 07:06:37;;;;;;;13.67;10.47;;;4.00;99.90;;;;;;4948389;28;20970;-69
2021/01/25 07:09:32;;;;;;;13.73;10.23;;;4.00;99.90;;;;;;4996711;28;21103;-68
2021/01/25 07:12:19;;;;;;;13.33;10.90;;;4.00;99.90;;;;;;4995166;28;20651;-69
2021/01/25 07:15:05;;;;;;;13.87;10.67;;;4.00;99.90;;;;;;4998320;28;21810;-69
2021/01/25 07:17:50;;;;;;;13.03;10.40;;;4.00;99.90;;;;;;4981897;28;21178;-69
2021/01/25 07:20:35;;;;;;;12.67;10.70;;;3.90;99.90;;;;;;4979876;28;20654;-70
2021/01/25 07:23:21;;;;;;;13.10;10.40;;;3.90;99.90;;;;;;4993233;28;21260;-69
2021/01/25 07:26:06;;;;;;;12.90;10.33;;;4.00;99.90;;;;;;4995839;28;21180;-71
2021/01/25 07:28:51;;;;;;;13.53;10.93;;;3.90;99.90;;;;;;4975946;28;20705;-69
2021/01/25 07:31:36;;;;;;;12.50;10.80;;;3.90;99.90;;;;;;4994631;28;20650;-69
2021/01/25 07:34:21;;;;;;;13.40;11.30;;;3.90;99.90;;;;;;4992948;28;20603;-69
2021/01/25 07:37:08;;;;;;;17.43;11.90;;;3.90;99.90;;;;;;4987029;28;20672;-69
2021/01/25 07:39:53;;;;;;;15.20;11.37;;;3.90;99.90;;;;;;4994089;28;21744;-69
2021/01/25 07:42:37;;;;;;;14.03;11.27;;;4.00;99.90;;;;;;4991674;28;22153;-69
2021/01/25 07:45:23;;;;;;;15.07;10.60;;;4.00;99.90;;;;;;4992399;28;20640;-70
2021/01/25 07:48:12;;;;;;;12.47;9.87;;;3.90;99.90;;;;;;5147093;23;20765;-66
2021/01/25 07:53:43;;;;;;;12.70;9.83;;;4.00;99.90;;;;;;4998495;28;20643;-63
2021/01/25 07:56:28;;;;;;;12.40;10.60;;;4.00;99.90;;;;;;4999268;28;21742;-65
2021/01/25 07:59:17;;;;;;;12.57;10.47;;;3.90;99.90;;;;;;5001922;28;21695;-64
2021/01/25 08:02:15;;;;;;;13.37;11.93;;;3.90;99.90;;;;;;5017348;28;20729;-64
2021/01/25 08:05:01;;;;;;;13.50;11.30;;;3.90;99.90;;;;;;5030506;28;20669;-66
2021/01/25 08:07:46;;;;;;;13.73;11.63;;;3.90;99.90;;;;;;5031801;28;22369;-65
2021/01/25 08:10:31;;;;;;;12.93;10.17;;;3.90;99.90;;;;;;5032454;28;20613;-64
2021/01/25 08:13:19;;;;;;;13.77;9.97;;;3.90;99.90;;;;;;5032866;28;20613;-63
2021/01/25 08:16:15;;;;;;;16.23;11.33;;;4.00;99.90;;;;;;5022208;28;21045;-66
2021/01/25 08:19:12;;;;;;;14.93;11.20;;;3.80;99.90;;;;;;5053609;28;20597;-65
2021/01/25 08:22:03;;;;;;;14.63;11.13;;;3.80;99.90;;;;;;5050559;28;20641;-65
2021/01/25 08:25:00;;;;;;;13.17;10.40;;;3.80;99.90;;;;;;5033486;28;20657;-64
2021/01/25 08:28:14;;;;;;;14.90;10.73;;;3.80;99.90;;;;;;5015717;28;20628;-65
2021/01/25 08:31:13;;;;;;;12.73;10.00;;;3.80;99.90;;;;;;5033934;28;21294;-65
2021/01/25 08:34:01;;;;;;;12.23;8.83;;;3.80;99.90;;;;;;5027983;28;20636;-66
2021/01/25 08:37:18;;;;;;;16.80;10.10;;;3.70;99.90;;;;;;5033137;28;21768;-64
2021/01/25 08:40:22;;;;;;;13.30;10.33;;;3.80;99.90;;;;;;5032257;28;20671;-64
2021/01/25 08:43:22;;;;;;;13.93;9.70;;;3.80;99.90;;;;;;5035826;28;20641;-66
2021/01/25 08:46:15;;;;;;;14.37;10.90;;;3.80;99.90;;;;;;5018342;28;20649;-66
2021/01/25 08:49:31;;;;;;;17.00;11.60;;;3.90;99.90;;;;;;5036009;28;20641;-65
2021/01/25 08:52:29;;;;;;;15.80;10.97;;;4.00;99.90;;;;;;5033416;28;21318;-64
2021/01/25 08:55:26;;;;;;;16.03;12.37;;;3.80;99.90;;;;;;5025169;28;20680;-64
2021/01/25 08:58:29;;;;;;;17.70;12.60;;;3.80;99.90;;;;;;5028004;28;20726;-65
2021/01/25 09:01:27;;;;;;;19.93;12.23;;;3.80;99.90;;;;;;5022348;28;20661;-64
2021/01/25 09:04:12;;;;;;;18.20;12.67;;;3.80;99.90;;;;;;5017273;28;20645;-65
2021/01/25 09:06:56;;;;;;;17.83;12.70;;;3.90;99.90;;;;;;5037483;28;20606;-66
2021/01/25 09:09:41;;;;;;;16.60;11.80;;;3.80;99.90;;;;;;5038893;28;20727;-66
2021/01/25 09:12:26;;;;;;;16.90;11.27;;;3.90;99.90;;;;;;5054490;28;20617;-65
2021/01/25 09:15:12;;;;;;;12.70;9.60;;;3.90;99.90;;;;;;5053841;28;20624;-66
2021/01/25 09:17:57;;;;;;;11.37;9.13;;;3.90;99.90;;;;;;5048390;28;21273;-65
2021/01/25 09:20:42;;;;;;;12.43;9.70;;;3.80;99.90;;;;;;5051427;28;20760;-65
2021/01/25 09:23:27;;;;;;;15.63;11.07;;;3.80;99.90;;;;;;5043497;28;20606;-66
2021/01/25 09:26:12;;;;;;;17.13;12.10;;;3.80;99.90;;;;;;5040363;28;20733;-68
2021/01/25 09:28:59;;;;;;;15.07;11.53;;;3.90;99.90;;;;;;5053514;28;20646;-66
2021/01/25 09:31:44;;;;;;;18.70;12.40;;;3.90;99.90;;;;;;5050605;28;20628;-65
2021/01/25 09:34:29;;;;;;;17.00;12.20;;;4.00;99.90;;;;;;5021938;28;20697;-63
2021/01/25 09:37:13;;;;;;;17.20;13.50;;;4.00;99.90;;;;;;5025201;28;20664;-65
2021/01/25 09:39:58;;;;;;;18.63;11.90;;;4.00;99.90;;;;;;5026700;28;20947;-63
2021/01/25 09:42:43;;;;;;;17.70;11.20;;;3.90;99.90;;;;;;5026961;28;22570;-65
2021/01/25 09:45:27;;;;;;;14.30;10.87;;;3.80;99.90;;;;;;5023217;28;20646;-65
2021/01/25 09:48:12;;;;;;;13.00;9.40;;;3.80;99.90;;;;;;5030143;28;21242;-63
2021/01/25 09:50:57;;;;;;;13.50;9.77;;;3.80;99.90;;;;;;5027408;28;20712;-65
2021/01/25 09:53:41;;;;;;;13.20;9.40;;;3.90;99.90;;;;;;5029107;28;20657;-64
2021/01/25 09:56:26;;;;;;;17.20;12.10;;;3.90;99.90;;;;;;5028813;28;21163;-65
2021/01/25 09:59:10;;;;;;;14.43;10.90;;;3.90;99.90;;;;;;5014753;28;21273;-64
2021/01/25 10:01:55;;;;;;;14.10;10.73;;;3.90;99.90;;;;;;5029793;28;21482;-66
2021/01/25 10:04:40;;;;;;;16.57;11.97;;;3.90;99.90;;;;;;5027122;28;20652;-64
2021/01/25 10:07:25;;;;;;;15.63;10.97;;;3.80;99.90;;;;;;5009861;28;20675;-64
2021/01/25 10:10:12;;;;;;;16.87;11.50;;;3.90;99.90;;;;;;5028173;28;20656;-65
2021/01/25 10:12:57;;;;;;;16.60;11.60;;;3.90;99.90;;;;;;5024680;28;20661;-66
2021/01/25 10:15:41;;;;;;;17.03;11.47;;;3.90;99.90;;;;;;5030379;28;20656;-64
2021/01/25 10:18:26;;;;;;;17.13;12.53;;;3.90;99.90;;;;;;5038723;28;20622;-65
2021/01/25 10:21:12;;;;;;;20.50;13.13;;;4.00;99.90;;;;;;5051063;28;20720;-64
2021/01/25 10:23:57;;;;;;;19.97;13.60;;;4.00;99.90;;;;;;5034377;28;23770;-67
2021/01/25 10:26:41;;;;;;;20.77;14.17;;;4.10;99.90;;;;;;5035417;28;20616;-65
2021/01/25 10:29:26;;;;;;;24.67;14.90;;;4.10;99.90;;;;;;5035713;28;20646;-66
2021/01/25 10:32:10;;;;;;;21.87;13.87;;;3.90;99.90;;;;;;5053535;28;21003;-67
2021/01/25 10:34:55;;;;;;;22.37;14.73;;;3.90;99.90;;;;;;5039687;28;20653;-66
2021/01/25 10:37:41;;;;;;;20.13;13.73;;;4.00;99.90;;;;;;5034730;28;20621;-66
2021/01/25 10:40:25;;;;;;;21.10;14.60;;;3.90;99.90;;;;;;5040484;28;20660;-65
2021/01/25 10:43:10;;;;;;;16.87;13.10;;;4.00;99.90;;;;;;5048613;28;20625;-66
2021/01/25 10:45:55;;;;;;;20.03;13.90;;;3.90;99.90;;;;;;5046972;28;20646;-66
2021/01/25 10:48:39;;;;;;;18.47;13.00;;;4.00;99.90;;;;;;5045171;28;20771;-65
2021/01/25 10:51:26;;;;;;;20.00;14.33;;;4.00;99.90;;;;;;5037877;28;21234;-66
2021/01/25 10:54:10;;;;;;;20.50;13.90;;;4.10;99.90;;;;;;5048401;28;20631;-66
2021/01/25 10:56:56;;;;;;;17.43;13.40;;;4.00;99.90;;;;;;5049288;28;21011;-67
2021/01/25 10:59:40;;;;;;;20.40;14.33;;;3.90;99.90;;;;;;5042326;28;21248;-65
2021/01/25 11:02:26;;;;;;;22.20;15.33;;;4.00;99.90;;;;;;5039137;28;21310;-66
2021/01/25 11:05:12;;;;;;;21.73;15.47;;;4.10;99.90;;;;;;5046503;28;20648;-66
2021/01/25 11:07:56;;;;;;;21.77;15.93;;;4.20;99.90;;;;;;5035239;28;20746;-65
2021/01/25 11:10:41;;;;;;;17.23;13.60;;;4.20;99.90;;;;;;5027369;28;20676;-64
2021/01/25 11:13:26;;;;;;;16.13;13.73;;;4.30;99.90;;;;;;5004734;28;20738;-66
2021/01/25 11:16:11;;;;;;;15.63;13.20;;;4.30;99.90;;;;;;5029970;28;20742;-65
2021/01/25 11:18:58;;;;;;;16.90;12.87;;;4.30;99.90;;;;;;5031278;28;21461;-65
2021/01/25 11:21:43;;;;;;;14.97;11.33;;;4.30;99.90;;;;;;5030182;28;20649;-67
2021/01/25 11:24:28;;;;;;;14.23;12.20;;;4.40;99.90;;;;;;5014424;28;20775;-67
2021/01/25 11:27:12;;;;;;;12.73;10.80;;;4.40;99.90;;;;;;5033528;28;20712;-66
2021/01/25 11:29:57;;;;;;;12.43;9.43;;;4.40;99.90;;;;;;5035437;28;20839;-65
2021/01/25 11:32:41;;;;;;;8.07;6.60;;;4.40;99.90;;;;;;5019603;28;20661;-66
2021/01/25 11:35:28;;;;;;;7.43;6.50;;;4.30;99.90;;;;;;5032144;28;20790;-66
2021/01/25 11:38:13;;;;;;;10.03;8.43;;;4.40;99.90;;;;;;5045487;28;20614;-67
2021/01/25 11:41:00;;;;;;;9.97;8.63;;;4.40;99.90;;;;;;5059628;28;21305;-66
2021/01/25 11:43:45;;;;;;;12.43;9.83;;;4.40;99.90;;;;;;5037934;28;20644;-66
2021/01/25 11:46:30;;;;;;;13.33;11.33;;;4.40;99.90;;;;;;5055809;28;21195;-67
2021/01/25 11:49:14;;;;;;;17.87;13.77;;;4.40;99.90;;;;;;5046787;28;21025;-67
2021/01/25 11:51:59;;;;;;;15.20;12.87;;;4.40;99.90;;;;;;5053692;28;20812;-66
2021/01/25 11:54:43;;;;;;;15.57;11.87;;;4.50;99.90;;;;;;5054051;28;20689;-66
2021/01/25 11:57:31;;;;;;;14.20;10.67;;;4.40;99.90;;;;;;5050341;28;21427;-66
2021/01/25 12:00:18;;;;;;;18.03;12.70;;;4.40;99.90;;;;;;5055391;28;20851;-65
2021/01/25 12:03:04;;;;;;;19.70;14.20;;;4.40;99.90;;;;;;5022797;28;20632;-66
2021/01/25 12:05:51;;;;;;;20.03;14.80;;;4.40;99.90;;;;;;5026492;28;21120;-64
2021/01/25 12:08:36;;;;;;;18.13;13.83;;;4.30;99.90;;;;;;5017446;28;20675;-64
2021/01/25 12:11:21;;;;;;;21.57;15.73;;;4.40;99.90;;;;;;5032187;28;20633;-65
2021/01/25 12:14:06;;;;;;;18.90;13.80;;;4.40;99.90;;;;;;5026490;28;20806;-65
2021/01/25 12:16:50;;;;;;;18.93;14.73;;;4.40;99.90;;;;;;5032478;28;20640;-66
2021/01/25 12:19:36;;;;;;;17.33;12.97;;;4.50;99.90;;;;;;5012883;28;20698;-66
2021/01/25 12:22:20;;;;;;;16.60;13.53;;;4.50;99.90;;;;;;5028934;28;22010;-65
2021/01/25 12:25:05;;;;;;;17.90;13.43;;;4.40;99.90;;;;;;5013370;28;20645;-64
2021/01/25 12:27:51;;;;;;;18.00;13.50;;;4.40;99.90;;;;;;5012951;28;22122;-64
2021/01/25 12:30:37;;;;;;;19.20;14.63;;;4.40;99.90;;;;;;5028535;28;20652;-65
2021/01/25 12:33:22;;;;;;;17.87;14.03;;;4.40;99.90;;;;;;5032778;28;20604;-66
2021/01/25 12:36:07;;;;;;;20.27;13.97;;;4.40;99.90;;;;;;5030936;28;20837;-64
2021/01/25 12:38:51;;;;;;;17.77;13.67;;;4.40;99.90;;;;;;5031705;28;20622;-64
2021/01/25 12:41:37;;;;;;;20.07;14.60;;;4.40;99.90;;;;;;5030454;28;20702;-66
2021/01/25 12:44:21;;;;;;;16.37;13.67;;;4.40;99.90;;;;;;5014828;28;20652;-66
2021/01/25 12:47:06;;;;;;;22.00;15.10;;;4.40;99.90;;;;;;5033216;28;20644;-66
2021/01/25 12:49:50;;;;;;;18.13;13.37;;;4.40;99.90;;;;;;5033383;28;21476;-65
2021/01/25 12:52:35;;;;;;;15.90;12.70;;;4.50;99.90;;;;;;5028970;28;20848;-66
2021/01/25 12:55:21;;;;;;;15.37;13.10;;;4.50;99.90;;;;;;5013274;28;20734;-65
2021/01/25 12:58:08;;;;;;;17.77;13.50;;;4.50;99.90;;;;;;5031162;28;20624;-66
2021/01/25 13:00:53;;;;;;;17.37;13.93;;;4.60;99.90;;;;;;5019015;28;22358;-64
2021/01/25 13:03:39;;;;;;;18.47;14.73;;;4.60;99.90;;;;;;5029108;28;20650;-66
2021/01/25 13:06:24;;;;;;;16.37;12.27;;;4.60;99.90;;;;;;5014910;28;20728;-65
2021/01/25 13:09:09;;;;;;;18.37;14.13;;;4.70;99.90;;;;;;5026127;28;20667;-64
2021/01/25 13:11:53;;;;;;;18.57;13.80;;;4.60;99.90;;;;;;5022249;28;20726;-65
2021/01/25 13:14:37;;;;;;;18.53;13.57;;;4.60;99.90;;;;;;5019371;28;20762;-64
2021/01/25 13:17:22;;;;;;;20.53;14.87;;;4.60;99.90;;;;;;5021172;28;20672;-65
2021/01/25 13:20:08;;;;;;;19.10;14.17;;;4.60;99.90;;;;;;5021876;28;20666;-65
2021/01/25 13:22:53;;;;;;;20.53;15.10;;;4.70;99.90;;;;;;5010728;28;20728;-65
2021/01/25 13:25:37;;;;;;;16.23;13.37;;;4.80;99.90;;;;;;5007295;28;20633;-66
2021/01/25 13:28:22;;;;;;;17.10;13.40;;;4.80;99.90;;;;;;5027300;28;20621;-66
2021/01/25 13:31:06;;;;;;;16.57;13.40;;;4.80;99.90;;;;;;5039372;28;21081;-67
2021/01/25 13:33:51;;;;;;;16.63;13.07;;;4.80;99.90;;;;;;5028727;28;20665;-66
2021/01/25 13:36:36;;;;;;;16.80;13.27;;;4.80;99.90;;;;;;5044148;28;20581;-64
2021/01/25 13:39:20;;;;;;;16.03;13.37;;;4.90;99.90;;;;;;5045728;28;20700;-66
2021/01/25 13:42:05;;;;;;;15.00;12.87;;;4.90;99.90;;;;;;5047312;28;20721;-66
2021/01/25 13:44:49;;;;;;;10.77;9.10;;;4.90;99.90;;;;;;5032980;28;20641;-65
2021/01/25 13:47:34;;;;;;;11.20;8.13;;;4.80;99.90;;;;;;5036241;28;20612;-66
2021/01/25 13:50:20;;;;;;;9.03;7.77;;;4.90;99.90;;;;;;5048412;28;20633;-66
2021/01/25 13:53:06;;;;;;;8.67;7.73;;;4.90;99.90;;;;;;5047255;28;21210;-66
2021/01/25 13:55:53;;;;;;;9.53;8.23;;;4.90;99.90;;;;;;5032535;28;20787;-66
2021/01/25 13:58:38;;;;;;;9.90;8.30;;;4.90;99.90;;;;;;5045447;28;20637;-64
2021/01/25 14:01:22;;;;;;;11.17;9.70;;;4.90;99.90;;;;;;5047510;28;20641;-66
2021/01/25 14:04:07;;;;;;;14.30;10.90;;;4.80;99.90;;;;;;5048429;28;20992;-65
2021/01/25 14:06:54;;;;;;;17.53;11.80;;;4.80;99.90;;;;;;5050236;28;20614;-66
2021/01/25 14:09:39;;;;;;;14.60;11.50;;;4.80;99.90;;;;;;5047935;28;20734;-66
2021/01/25 14:12:24;;;;;;;14.93;11.53;;;4.90;99.90;;;;;;5041560;28;21233;-65
2021/01/25 14:15:09;;;;;;;13.80;11.40;;;5.00;99.90;;;;;;5029356;28;20630;-65
2021/01/25 14:17:53;;;;;;;14.33;11.13;;;5.00;99.90;;;;;;5042925;28;20659;-66
2021/01/25 14:20:40;;;;;;;14.73;12.70;;;5.20;99.90;;;;;;5045509;28;20636;-67
2021/01/25 14:23:25;;;;;;;22.17;17.27;;;5.30;99.90;;;;;;5043175;28;22139;-68
2021/01/25 14:26:10;;;;;;;18.80;15.50;;;5.30;99.90;;;;;;5052189;28;20705;-67